AAN112 LEIB-LEVC
Flight info
| Callsign | AAN112 |
|---|---|
| Flight time | N/A |
| Altitude | 15000 |
| Route | XOSTA M134 NINOT |
| Aircraft | B77W/H-SDE1E2E3FGHIJ2J3J4J5M1RWXY/LB1D1 |
Departure
| Time | 2026-05-05 08:14 |
|---|---|
| Airport | Ibiza Airport (LEIB) |
Arrival
| Time | N/A |
|---|---|
| Airport | Valencia Airport (LEVC) |
| Time | Latitude | Longitude | Altitude | Speed | Heading |
|---|---|---|---|---|---|
| 2026-05-05 08:02 | 38.87503 | 1.36799 | 36 ft | 0 kts | 17° |
| 2026-05-05 08:03 | 38.87499 | 1.36797 | 35 ft | 3 kts | 17° |
| 2026-05-05 08:04 | 38.87481 | 1.36790 | 35 ft | 3 kts | 17° |
| 2026-05-05 08:04 | 38.87463 | 1.36783 | 33 ft | 3 kts | 17° |
| 2026-05-05 08:04 | 38.87446 | 1.36776 | 32 ft | 3 kts | 17° |
| 2026-05-05 08:04 | 38.87433 | 1.36771 | 33 ft | 0 kts | 17° |
| 2026-05-05 08:05 | 38.87435 | 1.36776 | 32 ft | 1 kts | 39° |
| 2026-05-05 08:05 | 38.87448 | 1.36803 | 34 ft | 7 kts | 61° |
| 2026-05-05 08:05 | 38.87478 | 1.36881 | 36 ft | 11 kts | 63° |
| 2026-05-05 08:05 | 38.87510 | 1.36963 | 36 ft | 10 kts | 63° |
| 2026-05-05 08:06 | 38.87535 | 1.37026 | 36 ft | 6 kts | 63° |
| 2026-05-05 08:06 | 38.87551 | 1.37076 | 36 ft | 0 kts | 74° |
| 2026-05-05 08:06 | 38.87554 | 1.37083 | 36 ft | 5 kts | 71° |
| 2026-05-05 08:07 | 38.87556 | 1.37092 | 36 ft | 0 kts | 71° |
| 2026-05-05 08:07 | 38.87556 | 1.37094 | 36 ft | 0 kts | 70° |
| 2026-05-05 08:08 | 38.87563 | 1.37114 | 36 ft | 10 kts | 68° |
| 2026-05-05 08:08 | 38.87604 | 1.37223 | 36 ft | 15 kts | 63° |
| 2026-05-05 08:08 | 38.87651 | 1.37341 | 36 ft | 14 kts | 64° |
| 2026-05-05 08:08 | 38.87665 | 1.37448 | 36 ft | 11 kts | 96° |
| 2026-05-05 08:09 | 38.87637 | 1.37508 | 37 ft | 8 kts | 135° |
| 2026-05-05 08:09 | 38.87598 | 1.37581 | 37 ft | 11 kts | 96° |
| 2026-05-05 08:09 | 38.87644 | 1.37719 | 37 ft | 21 kts | 62° |
| 2026-05-05 08:09 | 38.87711 | 1.37880 | 37 ft | 19 kts | 62° |
| 2026-05-05 08:10 | 38.87770 | 1.38022 | 37 ft | 17 kts | 62° |
| 2026-05-05 08:10 | 38.87825 | 1.38156 | 37 ft | 19 kts | 62° |
| 2026-05-05 08:10 | 38.87884 | 1.38301 | 37 ft | 17 kts | 63° |
| 2026-05-05 08:10 | 38.87936 | 1.38429 | 37 ft | 15 kts | 62° |
| 2026-05-05 08:11 | 38.87984 | 1.38537 | 37 ft | 13 kts | 56° |
| 2026-05-05 08:11 | 38.88007 | 1.38603 | 37 ft | 6 kts | 84° |
| 2026-05-05 08:11 | 38.87996 | 1.38643 | 37 ft | 4 kts | 123° |
| 2026-05-05 08:11 | 38.87963 | 1.38665 | 37 ft | 0 kts | 159° |
| 2026-05-05 08:12 | 38.87914 | 1.38690 | 36 ft | 10 kts | 158° |
| 2026-05-05 08:12 | 38.87859 | 1.38686 | 34 ft | 6 kts | 206° |
| 2026-05-05 08:13 | 38.87841 | 1.38650 | 34 ft | 20 kts | 240° |
| 2026-05-05 08:13 | 38.87640 | 1.38166 | 38 ft | 104 kts | 242° |
| 2026-05-05 08:13 | 38.87169 | 1.37028 | 39 ft | 184 kts | 243° |
| 2026-05-05 08:13 | 38.86488 | 1.35298 | 468 ft | 239 kts | 243° |
| 2026-05-05 08:14 | 38.85761 | 1.33395 | 1777 ft | 224 kts | 243° |
| 2026-05-05 08:14 | 38.85030 | 1.31554 | 2910 ft | 241 kts | 243° |
| 2026-05-05 08:14 | 38.84246 | 1.29573 | 4044 ft | 257 kts | 243° |